createdAt,value
2022-11-10T00:00:46.901Z,101475.16
2022-11-10T00:03:32.826Z,101485.78
2022-11-10T00:06:18.707Z,101485.78
2022-11-10T00:09:04.493Z,101481.41
2022-11-10T00:11:50.427Z,101477.00
2022-11-10T00:14:54.906Z,101482.38
2022-11-10T00:17:40.495Z,101473.44
2022-11-10T00:20:26.530Z,101488.69
2022-11-10T00:23:12.411Z,101480.63
2022-11-10T00:25:59.032Z,101478.81
2022-11-10T00:28:45.839Z,101477.94
2022-11-10T00:31:31.699Z,101471.72
2022-11-10T00:34:17.795Z,101482.47
2022-11-10T00:37:03.758Z,101478.94
2022-11-10T00:39:49.840Z,101486.97
2022-11-10T00:42:35.814Z,101484.31
2022-11-10T00:45:21.802Z,101489.66
2022-11-10T00:48:07.722Z,101501.38
2022-11-10T00:50:53.781Z,101518.34
2022-11-10T00:53:39.717Z,101520.19
2022-11-10T00:56:26.112Z,101503.22
2022-11-10T00:59:12.191Z,101496.13
2022-11-10T01:01:58.039Z,101495.16
2022-11-10T01:04:43.926Z,101495.16
2022-11-10T01:07:29.789Z,101497.00
2022-11-10T01:10:16.353Z,101492.56
2022-11-10T01:13:02.615Z,101489.03
2022-11-10T01:15:48.204Z,101501.47
2022-11-10T01:18:35.619Z,101495.16
2022-11-10T01:21:22.489Z,101489.88
2022-11-10T01:24:08.714Z,101482.81
2022-11-10T01:26:54.536Z,101492.56
2022-11-10T01:29:40.678Z,101500.63
2022-11-10T01:32:26.400Z,101489.03
2022-11-10T01:35:12.365Z,101479.16
2022-11-10T01:37:58.782Z,101464.88
2022-11-10T01:40:45.547Z,101469.41
2022-11-10T01:43:31.923Z,101478.31
2022-11-10T01:46:17.497Z,101484.53
2022-11-10T01:49:04.685Z,101481.97
2022-11-10T01:52:01.840Z,101494.41
2022-11-10T01:54:49.791Z,101497.09
2022-11-10T01:57:37.041Z,101506.00
2022-11-10T02:00:23.118Z,101506.13
2022-11-10T02:03:17.900Z,101517.72
2022-11-10T02:06:05.085Z,101508.81
2022-11-10T02:08:52.420Z,101503.44
2022-11-10T02:11:40.076Z,101498.06
2022-11-10T02:14:26.723Z,101493.69
2022-11-10T02:17:12.968Z,101487.34
2022-11-10T02:20:00.944Z,101481.97
2022-11-10T02:22:46.888Z,101473.06
2022-11-10T02:25:33.229Z,101474.91
2022-11-10T02:28:18.874Z,101469.53
2022-11-10T02:31:06.071Z,101472.09
2022-11-10T02:33:51.948Z,101461.47
2022-11-10T02:36:38.229Z,101454.28
2022-11-10T02:39:24.066Z,101445.38
2022-11-10T02:42:10.536Z,101445.38
2022-11-10T02:44:57.230Z,101446.31
2022-11-10T02:47:43.121Z,101444.50
2022-11-10T02:50:29.298Z,101445.47
2022-11-10T02:53:15.594Z,101439.16
2022-11-10T02:56:01.555Z,101454.38
2022-11-10T02:58:47.699Z,101454.38
2022-11-10T03:01:33.837Z,101439.16
2022-11-10T03:04:19.718Z,101454.38
2022-11-10T03:07:05.669Z,101472.31
2022-11-10T03:09:51.922Z,101481.22
2022-11-10T03:12:37.639Z,101486.56
2022-11-10T03:15:24.300Z,101482.09
2022-11-10T03:18:10.061Z,101486.56
2022-11-10T03:20:55.800Z,101496.47
2022-11-10T03:23:41.725Z,101503.56
2022-11-10T03:26:27.934Z,101503.56
2022-11-10T03:29:13.761Z,101508.06
2022-11-10T03:31:59.659Z,101502.81
2022-11-10T03:34:45.646Z,101494.75
2022-11-10T03:37:31.435Z,101510.88
2022-11-10T03:40:17.393Z,101523.31
2022-11-10T03:43:03.419Z,101530.50
2022-11-10T03:45:49.230Z,101532.34
2022-11-10T03:48:35.498Z,101529.66
2022-11-10T03:51:22.372Z,101537.72
2022-11-10T03:54:08.324Z,101539.53
2022-11-10T03:56:54.631Z,101545.03
2022-11-10T03:59:40.811Z,101551.13
2022-11-10T04:02:26.885Z,101556.50
2022-11-10T04:05:31.200Z,101556.50
2022-11-10T04:08:36.503Z,101555.66
2022-11-10T04:11:41.235Z,101553.81
2022-11-10T04:14:45.492Z,101555.66
2022-11-10T04:17:31.485Z,101560.16
2022-11-10T04:20:18.253Z,101569.06
2022-11-10T04:23:23.153Z,101569.91
2022-11-10T04:26:29.640Z,101570.91
2022-11-10T04:29:18.358Z,101575.28
2022-11-10T04:32:04.683Z,101584.31
2022-11-10T04:34:50.526Z,101590.53
2022-11-10T04:37:37.340Z,101600.44
2022-11-10T04:40:23.576Z,101605.78
2022-11-10T04:43:09.470Z,101606.78
2022-11-10T04:45:55.806Z,101604.81
2022-11-10T04:48:41.502Z,101611.25
2022-11-10T04:51:38.917Z,101605.88
2022-11-10T04:54:24.901Z,101617.50
2022-11-10T04:57:10.563Z,101621.03
2022-11-10T04:59:56.791Z,101628.25
2022-11-10T05:02:42.536Z,101631.78
2022-11-10T05:05:28.806Z,101622.88
2022-11-10T05:08:15.127Z,101613.09
2022-11-10T05:11:01.192Z,101613.09
2022-11-10T05:13:47.135Z,101618.47
2022-11-10T05:16:33.268Z,101630.94
2022-11-10T05:19:19.136Z,101623.81
2022-11-10T05:22:07.037Z,101636.31
2022-11-10T05:24:52.857Z,101643.59
2022-11-10T05:27:38.838Z,101650.66
2022-11-10T05:30:24.907Z,101650.66
2022-11-10T05:33:11.288Z,101652.41
2022-11-10T05:35:57.282Z,101647.97
2022-11-10T05:38:43.970Z,101647.13
2022-11-10T05:41:30.121Z,101653.34
2022-11-10T05:44:15.815Z,101645.28
2022-11-10T05:47:01.671Z,101651.53
2022-11-10T05:49:47.640Z,101651.53
2022-11-10T05:52:33.578Z,101664.09
2022-11-10T05:55:24.762Z,101666.78
2022-11-10T05:58:10.854Z,101674.81
2022-11-10T06:00:57.328Z,101669.47
2022-11-10T06:03:43.696Z,101677.50
2022-11-10T06:06:30.009Z,101683.72
2022-11-10T06:09:15.428Z,101683.84
2022-11-10T06:12:03.547Z,101691.78
2022-11-10T06:14:49.959Z,101701.66
2022-11-10T06:17:38.193Z,101694.59
2022-11-10T06:20:24.952Z,101709.72
2022-11-10T06:23:11.890Z,101715.22
2022-11-10T06:25:57.477Z,101724.13
2022-11-10T06:28:43.385Z,101727.78
2022-11-10T06:31:29.524Z,101734.84
2022-11-10T06:34:15.251Z,101742.06
2022-11-10T06:37:01.289Z,101743.88
2022-11-10T06:39:47.618Z,101750.09
2022-11-10T06:42:34.165Z,101754.63
2022-11-10T06:45:20.331Z,101775.97
2022-11-10T06:48:14.221Z,101779.63
2022-11-10T06:51:01.041Z,101783.19
2022-11-10T06:53:47.671Z,101782.44
2022-11-10T06:56:33.400Z,101785.00
2022-11-10T06:59:19.291Z,101793.06
2022-11-10T07:02:05.180Z,101794.88
2022-11-10T07:04:51.105Z,101797.56
2022-11-10T07:07:36.945Z,101811.97
2022-11-10T07:10:22.698Z,101819.03
2022-11-10T07:13:10.223Z,101819.03
2022-11-10T07:15:56.054Z,101811.97
2022-11-10T07:18:42.019Z,101821.81
2022-11-10T07:21:28.197Z,101833.44
2022-11-10T07:24:13.989Z,101838.81
2022-11-10T07:27:00.263Z,101841.50
2022-11-10T07:29:45.778Z,101848.66
2022-11-10T07:32:31.806Z,101859.31
2022-11-10T07:35:17.753Z,101865.66
2022-11-10T07:38:09.285Z,101861.22
2022-11-10T07:40:56.002Z,101864.75
2022-11-10T07:43:41.888Z,101863.91
2022-11-10T07:46:27.708Z,101867.44
2022-11-10T07:49:13.659Z,101866.59
2022-11-10T07:51:59.491Z,101871.97
2022-11-10T07:54:45.187Z,101880.88
2022-11-10T07:57:30.979Z,101882.69
2022-11-10T08:00:17.570Z,101899.88
2022-11-10T08:03:05.714Z,101895.22
2022-11-10T08:05:51.953Z,101893.25
2022-11-10T08:08:37.879Z,101899.19
2022-11-10T08:11:23.626Z,101897.00
2022-11-10T08:14:10.002Z,101895.59
2022-11-10T08:16:55.650Z,101898.38
2022-11-10T08:19:41.956Z,101905.66
2022-11-10T08:22:27.624Z,101892.47
2022-11-10T08:25:13.689Z,101896.31
2022-11-10T08:28:01.499Z,101900.25
2022-11-10T08:30:48.912Z,101898.50
2022-11-10T08:33:34.883Z,101899.28
2022-11-10T08:36:20.967Z,101898.78
2022-11-10T08:39:06.760Z,101894.63
2022-11-10T08:41:52.568Z,101893.28
2022-11-10T08:44:38.497Z,101895.56
2022-11-10T08:47:24.723Z,101899.69
2022-11-10T08:50:10.622Z,101910.09
2022-11-10T08:52:56.722Z,101906.34
2022-11-10T08:55:44.121Z,101903.47
2022-11-10T08:58:30.262Z,101905.09
2022-11-10T09:01:16.032Z,101912.81
2022-11-10T09:04:01.913Z,101913.56
2022-11-10T09:06:48.049Z,101918.84
2022-11-10T09:09:33.933Z,101925.81
2022-11-10T09:12:19.795Z,101930.25
2022-11-10T09:15:06.553Z,101931.09
2022-11-10T09:17:52.369Z,101937.97
2022-11-10T09:20:38.923Z,101943.34
2022-11-10T09:23:25.243Z,101948.59
2022-11-10T09:26:11.949Z,101956.56
2022-11-10T09:28:58.160Z,101953.00
2022-11-10T09:31:45.241Z,101966.41
2022-11-10T09:34:30.965Z,101970.84
2022-11-10T09:37:16.937Z,101975.34
2022-11-10T09:40:03.390Z,101977.94
2022-11-10T09:42:53.678Z,101979.75
2022-11-10T09:45:47.182Z,101974.38
2022-11-10T09:48:38.021Z,101983.28
2022-11-10T09:51:30.520Z,101987.69
2022-11-10T09:54:37.297Z,101993.06
2022-11-10T09:57:26.139Z,101999.28
2022-11-10T10:00:17.315Z,102001.13
2022-11-10T10:03:05.446Z,102009.94
2022-11-10T10:05:57.107Z,102020.56
2022-11-10T10:08:54.582Z,102011.66
2022-11-10T10:11:43.530Z,102009.81
2022-11-10T10:14:42.497Z,102024.88
2022-11-10T10:17:41.377Z,102028.44
2022-11-10T10:20:55.578Z,102035.50
2022-11-10T10:24:21.052Z,102040.88
2022-11-10T10:27:15.687Z,102044.41
2022-11-10T10:30:06.341Z,102041.72
2022-11-10T10:33:00.849Z,102048.81
2022-11-10T10:35:48.941Z,102043.44
2022-11-10T10:38:39.629Z,102051.41
2022-11-10T10:41:31.836Z,102053.13
2022-11-10T10:44:19.676Z,102054.00
2022-11-10T10:47:05.486Z,102054.00
2022-11-10T10:49:51.346Z,102051.31
2022-11-10T10:52:37.314Z,102056.69
2022-11-10T10:55:29.462Z,102055.69
2022-11-10T10:58:27.863Z,102056.69
2022-11-10T11:01:16.315Z,102053.03
2022-11-10T11:04:25.164Z,102064.66
2022-11-10T11:07:25.189Z,102066.38
2022-11-10T11:10:19.831Z,102065.50
2022-11-10T11:13:24.884Z,102063.69
2022-11-10T11:16:12.715Z,102077.09
2022-11-10T11:18:59.119Z,102077.84
2022-11-10T11:22:03.680Z,102068.06
2022-11-10T11:25:00.877Z,102077.84
2022-11-10T11:28:00.469Z,102072.47
2022-11-10T11:31:10.563Z,102082.34
2022-11-10T11:34:05.542Z,102075.06
2022-11-10T11:36:51.477Z,102074.22
2022-11-10T11:40:14.770Z,102084.00
2022-11-10T11:43:27.879Z,102088.50
2022-11-10T11:46:19.589Z,102082.16
2022-11-10T11:49:49.525Z,102085.81
2022-11-10T11:52:48.788Z,102092.78
2022-11-10T11:55:43.663Z,102090.97
2022-11-10T11:58:29.747Z,102095.47
2022-11-10T12:01:34.423Z,102097.31
2022-11-10T12:05:10.809Z,102097.31
2022-11-10T12:08:22.682Z,102107.19
2022-11-10T12:11:14.299Z,102102.59
2022-11-10T12:14:12.802Z,102105.34
2022-11-10T12:17:12.398Z,102103.53
2022-11-10T12:20:20.339Z,102113.34
2022-11-10T12:23:43.435Z,102118.69
2022-11-10T12:26:38.749Z,102115.13
2022-11-10T12:29:24.346Z,102119.56
2022-11-10T12:32:17.573Z,102117.72
2022-11-10T12:35:22.627Z,102124.81
2022-11-10T12:38:16.728Z,102126.53
2022-11-10T12:41:09.323Z,102129.22
2022-11-10T12:44:02.749Z,102124.81
2022-11-10T12:46:53.940Z,102127.38
2022-11-10T12:49:49.002Z,102123.97
2022-11-10T12:52:45.836Z,102129.22
2022-11-10T12:55:43.014Z,102127.63
2022-11-10T12:58:28.910Z,102129.53
2022-11-10T13:01:18.703Z,102136.84
2022-11-10T13:04:05.837Z,102139.59
2022-11-10T13:06:56.239Z,102135.19
2022-11-10T13:09:44.538Z,102129.09
2022-11-10T13:12:30.577Z,102130.88
2022-11-10T13:15:35.433Z,102138.06
2022-11-10T13:18:44.577Z,102136.56
2022-11-10T13:21:52.166Z,102137.72
2022-11-10T13:24:40.032Z,102137.16
2022-11-10T13:27:38.161Z,102140.88
2022-11-10T13:30:59.650Z,102139.34
2022-11-10T13:34:12.970Z,102149.22
2022-11-10T13:37:00.218Z,102147.63
2022-11-10T13:39:46.289Z,102155.00
2022-11-10T13:42:32.205Z,102156.91
2022-11-10T13:45:40.208Z,102159.78
2022-11-10T13:48:55.834Z,102159.03
2022-11-10T13:52:10.354Z,102164.59
2022-11-10T13:54:59.117Z,102173.59
2022-11-10T13:57:53.465Z,102185.19
2022-11-10T14:00:39.568Z,102186.84
2022-11-10T14:03:53.290Z,102186.53
2022-11-10T14:06:45.631Z,102192.59
2022-11-10T14:09:35.054Z,102196.97
2022-11-10T14:12:20.855Z,102197.75
2022-11-10T14:15:18.837Z,102200.34
2022-11-10T14:18:17.602Z,102208.28
2022-11-10T14:21:05.305Z,102216.25
2022-11-10T14:23:57.812Z,102219.78
2022-11-10T14:26:50.896Z,102223.34
2022-11-10T14:29:40.057Z,102224.09
2022-11-10T14:32:26.614Z,102232.16
2022-11-10T14:35:29.615Z,102231.22
2022-11-10T14:38:26.542Z,102232.94
2022-11-10T14:41:19.381Z,102239.16
2022-11-10T14:44:11.435Z,102236.47
2022-11-10T14:47:12.626Z,102246.25
2022-11-10T14:50:07.808Z,102240.00
2022-11-10T14:53:14.622Z,102248.00
2022-11-10T14:56:02.658Z,102256.03
2022-11-10T14:58:49.937Z,102258.72
2022-11-10T15:01:39.697Z,102267.63
2022-11-10T15:04:33.395Z,102263.13
2022-11-10T15:07:21.937Z,102263.13
2022-11-10T15:10:25.466Z,102264.84
2022-11-10T15:13:14.489Z,102269.34
2022-11-10T15:16:28.007Z,102264.84
2022-11-10T15:19:38.272Z,102270.22
2022-11-10T15:22:29.929Z,102270.22
2022-11-10T15:25:19.019Z,102271.06
2022-11-10T15:28:13.933Z,102277.31
2022-11-10T15:31:02.922Z,102274.63
2022-11-10T15:33:51.713Z,102277.31
2022-11-10T15:36:41.316Z,102277.31
2022-11-10T15:39:28.098Z,102287.09
2022-11-10T15:42:24.784Z,102281.81
2022-11-10T15:45:10.889Z,102299.63
2022-11-10T15:47:56.758Z,102305.00
2022-11-10T15:50:45.578Z,102308.59
2022-11-10T15:53:32.687Z,102308.59
2022-11-10T15:56:21.424Z,102309.34
2022-11-10T15:59:09.758Z,102310.31
2022-11-10T16:01:56.022Z,102315.66
2022-11-10T16:04:42.207Z,102315.66
2022-11-10T16:07:27.968Z,102309.44
2022-11-10T16:10:14.114Z,102322.00
2022-11-10T16:12:59.894Z,102337.16
2022-11-10T16:15:45.754Z,102338.13
2022-11-10T16:18:31.830Z,102347.88
2022-11-10T16:24:10.726Z,102351.44
2022-11-10T16:26:56.936Z,102363.88
2022-11-10T16:29:43.276Z,102363.81
2022-11-10T16:32:29.456Z,102368.28
2022-11-10T16:35:15.556Z,102372.72
2022-11-10T16:38:02.292Z,102376.34
2022-11-10T16:41:10.125Z,102385.28
2022-11-10T16:43:55.770Z,102388.84
2022-11-10T16:46:43.939Z,102397.75
2022-11-10T16:49:35.292Z,102400.44
2022-11-10T16:52:22.654Z,102402.25
2022-11-10T16:55:13.873Z,102408.50
2022-11-10T16:57:59.794Z,102402.34
2022-11-10T17:00:48.362Z,102402.25
2022-11-10T17:03:43.113Z,102406.66
2022-11-10T17:06:29.995Z,102410.22
2022-11-10T17:09:19.994Z,102417.41
2022-11-10T17:12:05.843Z,102423.63
2022-11-10T17:14:51.960Z,102421.81
2022-11-10T17:17:38.427Z,102423.63
2022-11-10T17:20:34.271Z,102415.47
2022-11-10T17:23:26.256Z,102416.38
2022-11-10T17:26:17.502Z,102423.47
2022-11-10T17:29:03.297Z,102422.59
2022-11-10T17:31:50.434Z,102427.00
2022-11-10T17:34:36.517Z,102430.66
2022-11-10T17:37:22.438Z,102427.00
2022-11-10T17:40:17.155Z,102435.91
2022-11-10T17:43:02.942Z,102428.81
2022-11-10T17:45:49.345Z,102419.91
2022-11-10T17:48:35.309Z,102428.81
2022-11-10T17:51:22.222Z,102436.88
2022-11-10T17:54:15.325Z,102435.06
2022-11-10T17:57:00.937Z,102437.75
2022-11-10T17:59:47.062Z,102443.97
2022-11-10T18:02:33.117Z,102449.34
2022-11-10T18:05:19.102Z,102451.16
2022-11-10T18:08:05.156Z,102454.72
2022-11-10T18:10:52.594Z,102468.13
2022-11-10T18:13:39.937Z,102469.00
2022-11-10T18:16:25.641Z,102464.50
2022-11-10T18:19:11.646Z,102459.97
2022-11-10T18:21:57.679Z,102453.69
2022-11-10T18:24:43.603Z,102455.50
2022-11-10T18:27:29.484Z,102461.72
2022-11-10T18:30:15.570Z,102471.63
2022-11-10T18:33:02.811Z,102475.16
2022-11-10T18:35:48.742Z,102485.03
2022-11-10T18:38:34.672Z,102491.28
2022-11-10T18:41:38.889Z,102492.13
2022-11-10T18:44:25.192Z,102496.66
2022-11-10T18:47:13.200Z,102489.44
2022-11-10T18:49:59.027Z,102495.69
2022-11-10T18:52:45.747Z,102504.59
2022-11-10T18:55:31.634Z,102501.91
2022-11-10T18:58:17.458Z,102499.22
2022-11-10T19:01:11.208Z,102494.72
2022-11-10T19:03:57.657Z,102501.91
2022-11-10T19:06:44.149Z,102507.28
2022-11-10T19:09:30.030Z,102511.78
2022-11-10T19:12:16.171Z,102518.88
2022-11-10T19:15:01.999Z,102525.97
2022-11-10T19:17:47.984Z,102531.44
2022-11-10T19:20:37.599Z,102534.13
2022-11-10T19:23:24.062Z,102534.03
2022-11-10T19:26:17.873Z,102541.22
2022-11-10T19:29:07.474Z,102549.38
2022-11-10T19:31:53.816Z,102543.06
2022-11-10T19:34:39.450Z,102551.09
2022-11-10T19:37:26.900Z,102553.78
2022-11-10T19:40:15.889Z,102547.56
2022-11-10T19:43:01.731Z,102550.25
2022-11-10T19:45:47.840Z,102556.47
2022-11-10T19:48:34.829Z,102550.16
2022-11-10T19:51:20.636Z,102568.09
2022-11-10T19:54:06.987Z,102555.50
2022-11-10T19:56:52.567Z,102559.09
2022-11-10T19:59:38.367Z,102568.94
2022-11-10T20:02:24.208Z,102575.22
2022-11-10T20:05:13.026Z,102581.44
2022-11-10T20:08:15.368Z,102588.63
2022-11-10T20:11:08.459Z,102600.13
2022-11-10T20:14:03.750Z,102599.38
2022-11-10T20:16:49.725Z,102607.44
2022-11-10T20:19:40.816Z,102614.53
2022-11-10T20:22:27.365Z,102624.41
2022-11-10T20:25:13.390Z,102621.72
2022-11-10T20:28:03.432Z,102622.59
2022-11-10T20:30:49.166Z,102621.72
2022-11-10T20:33:35.643Z,102623.53
2022-11-10T20:36:28.514Z,102636.00
2022-11-10T20:39:14.473Z,102630.63
2022-11-10T20:42:00.470Z,102633.31
2022-11-10T20:44:46.292Z,102631.50
2022-11-10T20:47:32.692Z,102635.03
2022-11-10T20:50:23.993Z,102643.97
2022-11-10T20:53:10.064Z,102635.03
2022-11-10T20:55:58.048Z,102643.09
2022-11-10T20:58:45.115Z,102644.06
2022-11-10T21:01:32.720Z,102644.81
2022-11-10T21:04:18.787Z,102660.94
2022-11-10T21:07:05.064Z,102657.50
2022-11-10T21:09:50.996Z,102654.81
2022-11-10T21:12:51.962Z,102653.00
2022-11-10T21:15:39.690Z,102652.19
2022-11-10T21:18:43.746Z,102657.50
2022-11-10T21:21:34.601Z,102663.81
2022-11-10T21:24:21.091Z,102668.25
2022-11-10T21:27:07.091Z,102666.50
2022-11-10T21:29:53.024Z,102671.00
2022-11-10T21:32:39.157Z,102663.81
2022-11-10T21:35:26.152Z,102669.25
2022-11-10T21:38:14.328Z,102669.19
2022-11-10T21:41:00.241Z,102666.50
2022-11-10T21:43:46.323Z,102670.13
2022-11-10T21:46:32.435Z,102666.59
2022-11-10T21:49:18.218Z,102661.22
2022-11-10T21:52:04.261Z,102665.63
2022-11-10T21:54:49.994Z,102662.00
2022-11-10T21:57:36.376Z,102670.06
2022-11-10T22:00:22.313Z,102673.59
2022-11-10T22:03:08.103Z,102670.91
2022-11-10T22:05:54.161Z,102670.06
2022-11-10T22:08:41.424Z,102656.53
2022-11-10T22:11:45.600Z,102665.44
2022-11-10T22:14:50.182Z,102663.63
2022-11-10T22:17:54.545Z,102670.75
2022-11-10T22:20:40.245Z,102661.81
2022-11-10T22:23:45.099Z,102661.81
2022-11-10T22:26:30.719Z,102670.75
2022-11-10T22:29:17.160Z,102676.13
2022-11-10T22:32:03.641Z,102662.69
2022-11-10T22:34:49.679Z,102660.94
2022-11-10T22:37:35.754Z,102656.44
2022-11-10T22:40:40.117Z,102660.00
2022-11-10T22:43:44.477Z,102657.31
2022-11-10T22:46:35.616Z,102667.09
2022-11-10T22:49:23.810Z,102671.63
2022-11-10T22:52:10.240Z,102682.34
2022-11-10T22:54:58.455Z,102663.56
2022-11-10T22:57:44.106Z,102666.25
2022-11-10T23:00:30.077Z,102677.84
2022-11-10T23:03:16.017Z,102679.56
2022-11-10T23:06:02.088Z,102682.25
2022-11-10T23:08:48.174Z,102672.47
2022-11-10T23:11:34.379Z,102687.63
2022-11-10T23:14:20.003Z,102689.34
2022-11-10T23:17:05.919Z,102691.19
2022-11-10T23:19:52.087Z,102691.19
2022-11-10T23:22:37.946Z,102693.88
2022-11-10T23:25:24.140Z,102700.09
2022-11-10T23:28:10.069Z,102693.00
2022-11-10T23:31:22.678Z,102692.13
2022-11-10T23:34:08.666Z,102692.25
2022-11-10T23:36:54.665Z,102690.41
2022-11-10T23:39:40.465Z,102691.28
2022-11-10T23:42:27.798Z,102694.81
2022-11-10T23:45:14.662Z,102690.41
2022-11-10T23:48:05.642Z,102697.63
2022-11-10T23:50:52.468Z,102697.69
2022-11-10T23:53:38.339Z,102712.84
2022-11-10T23:56:24.249Z,102701.31
2022-11-10T23:59:09.951Z,102706.59
